sensor_id;sensor_type;location;lat;lon;timestamp;pressure;altitude;pressure_sealevel;temperature;humidity
72685;BME280;61365;52.162;4.500;2022-11-24T00:01:15;100067.16;;;8.32;91.14
72685;BME280;61365;52.162;4.500;2022-11-24T00:03:44;100070.66;;;8.20;93.15
72685;BME280;61365;52.162;4.500;2022-11-24T00:06:14;100073.28;;;8.20;93.11
72685;BME280;61365;52.162;4.500;2022-11-24T00:08:43;100074.19;;;8.13;93.35
72685;BME280;61365;52.162;4.500;2022-11-24T00:11:16;100072.44;;;8.13;92.59
72685;BME280;61365;52.162;4.500;2022-11-24T00:13:46;100082.94;;;8.07;93.57
72685;BME280;61365;52.162;4.500;2022-11-24T00:16:18;100084.66;;;8.00;94.23
72685;BME280;61365;52.162;4.500;2022-11-24T00:18:46;100089.00;;;7.98;94.09
72685;BME280;61365;52.162;4.500;2022-11-24T00:21:15;100091.63;;;8.04;94.18
72685;BME280;61365;52.162;4.500;2022-11-24T00:23:44;100112.50;;;8.17;94.64
72685;BME280;61365;52.162;4.500;2022-11-24T00:26:13;100096.81;;;8.12;94.15
72685;BME280;61365;52.162;4.500;2022-11-24T00:28:40;100089.03;;;8.03;94.82
72685;BME280;61365;52.162;4.500;2022-11-24T00:31:31;100085.53;;;7.99;95.64
72685;BME280;61365;52.162;4.500;2022-11-24T00:34:02;100087.28;;;7.95;95.64
72685;BME280;61365;52.162;4.500;2022-11-24T00:36:32;100085.56;;;7.93;95.58
72685;BME280;61365;52.162;4.500;2022-11-24T00:39:02;100093.41;;;7.93;95.19
72685;BME280;61365;52.162;4.500;2022-11-24T00:41:33;100080.34;;;7.80;94.75
72685;BME280;61365;52.162;4.500;2022-11-24T00:44:00;100091.69;;;7.78;95.25
72685;BME280;61365;52.162;4.500;2022-11-24T00:46:27;100104.75;;;7.75;95.14
72685;BME280;61365;52.162;4.500;2022-11-24T00:48:54;100104.72;;;7.73;95.29
72685;BME280;61365;52.162;4.500;2022-11-24T00:51:23;100101.28;;;7.66;95.31
72685;BME280;61365;52.162;4.500;2022-11-24T00:53:53;100099.53;;;7.62;95.39
72685;BME280;61365;52.162;4.500;2022-11-24T00:56:21;100108.22;;;7.72;94.90
72685;BME280;61365;52.162;4.500;2022-11-24T00:58:48;100098.66;;;7.60;95.23
72685;BME280;61365;52.162;4.500;2022-11-24T01:01:18;100090.81;;;7.66;95.26
72685;BME280;61365;52.162;4.500;2022-11-24T01:03:46;100092.56;;;7.68;94.47
72685;BME280;61365;52.162;4.500;2022-11-24T01:06:18;100099.53;;;7.59;95.03
72685;BME280;61365;52.162;4.500;2022-11-24T01:08:46;100109.97;;;7.55;95.19
72685;BME280;61365;52.162;4.500;2022-11-24T01:11:38;100118.69;;;7.57;94.24
72685;BME280;61365;52.162;4.500;2022-11-24T01:14:23;100118.66;;;7.58;94.26
72685;BME280;61365;52.162;4.500;2022-11-24T01:16:50;100116.94;;;7.59;93.89
72685;BME280;61365;52.162;4.500;2022-11-24T01:19:16;100117.81;;;7.59;94.21
72685;BME280;61365;52.162;4.500;2022-11-24T01:21:43;100125.63;;;7.70;93.79
72685;BME280;61365;52.162;4.500;2022-11-24T01:24:10;100116.06;;;7.60;92.89
72685;BME280;61365;52.162;4.500;2022-11-24T01:26:37;100125.63;;;7.59;93.86
72685;BME280;61365;52.162;4.500;2022-11-24T01:29:04;100124.78;;;7.56;93.81
72685;BME280;61365;52.162;4.500;2022-11-24T01:31:30;100122.16;;;7.57;93.97
72685;BME280;61365;52.162;4.500;2022-11-24T01:33:57;100133.50;;;7.53;94.26
72685;BME280;61365;52.162;4.500;2022-11-24T01:36:24;100124.78;;;7.48;94.15
72685;BME280;61365;52.162;4.500;2022-11-24T01:38:50;100134.34;;;7.50;94.14
72685;BME280;61365;52.162;4.500;2022-11-24T01:41:22;100142.19;;;7.52;93.61
72685;BME280;61365;52.162;4.500;2022-11-24T01:43:51;100143.91;;;7.55;94.09
72685;BME280;61365;52.162;4.500;2022-11-24T01:46:27;100162.19;;;7.55;94.25
72685;BME280;61365;52.162;4.500;2022-11-24T01:51:37;100155.25;;;7.57;94.00
72685;BME280;61365;52.162;4.500;2022-11-24T01:54:12;100156.09;;;7.48;94.12
72685;BME280;61365;52.162;4.500;2022-11-24T01:56:45;100152.63;;;7.49;94.69
72685;BME280;61365;52.162;4.500;2022-11-24T01:59:17;100160.47;;;7.52;94.54
72685;BME280;61365;52.162;4.500;2022-11-24T02:01:47;100167.41;;;7.51;93.99
72685;BME280;61365;52.162;4.500;2022-11-24T02:04:21;100169.16;;;7.59;94.10
72685;BME280;61365;52.162;4.500;2022-11-24T02:06:53;100164.81;;;7.64;93.02
72685;BME280;61365;52.162;4.500;2022-11-24T02:09:29;100177.84;;;7.59;93.37
72685;BME280;61365;52.162;4.500;2022-11-24T02:12:01;100174.38;;;7.59;93.85
72685;BME280;61365;52.162;4.500;2022-11-24T02:14:28;100178.75;;;7.69;92.81
72685;BME280;61365;52.162;4.500;2022-11-24T02:16:55;100178.72;;;7.61;93.57
72685;BME280;61365;52.162;4.500;2022-11-24T02:19:31;100177.00;;;7.60;92.56
72685;BME280;61365;52.162;4.500;2022-11-24T02:22:04;100188.31;;;7.61;92.12
72685;BME280;61365;52.162;4.500;2022-11-24T02:27:22;100192.66;;;7.66;91.83
72685;BME280;61365;52.162;4.500;2022-11-24T02:29:49;100203.09;;;7.71;92.13
72685;BME280;61365;52.162;4.500;2022-11-24T02:32:16;100197.03;;;7.77;91.70
72685;BME280;61365;52.162;4.500;2022-11-24T02:34:44;100199.66;;;7.69;91.18
72685;BME280;61365;52.162;4.500;2022-11-24T02:37:11;100187.44;;;7.77;91.19
72685;BME280;61365;52.162;4.500;2022-11-24T02:39:37;100182.22;;;7.70;90.59
72685;BME280;61365;52.162;4.500;2022-11-24T02:42:08;100193.53;;;7.55;91.25
72685;BME280;61365;52.162;4.500;2022-11-24T02:44:43;100195.28;;;7.66;91.73
72685;BME280;61365;52.162;4.500;2022-11-24T02:47:15;100198.78;;;7.72;90.72
72685;BME280;61365;52.162;4.500;2022-11-24T02:49:42;100210.06;;;7.75;90.57
72685;BME280;61365;52.162;4.500;2022-11-24T02:52:08;100198.75;;;7.73;89.14
72685;BME280;61365;52.162;4.500;2022-11-24T02:54:35;100208.31;;;7.71;89.08
72685;BME280;61365;52.162;4.500;2022-11-24T02:57:01;100202.25;;;7.81;88.72
72685;BME280;61365;52.162;4.500;2022-11-24T02:59:27;100199.63;;;7.75;87.33
72685;BME280;61365;52.162;4.500;2022-11-24T03:01:54;100195.28;;;7.71;87.23
72685;BME280;61365;52.162;4.500;2022-11-24T03:04:20;100197.00;;;7.72;86.84
72685;BME280;61365;52.162;4.500;2022-11-24T03:06:47;100204.84;;;7.83;86.28
72685;BME280;61365;52.162;4.500;2022-11-24T03:09:13;100205.72;;;7.77;85.61
72685;BME280;61365;52.162;4.500;2022-11-24T03:11:40;100211.81;;;7.82;85.54
72685;BME280;61365;52.162;4.500;2022-11-24T03:14:07;100208.34;;;7.94;84.66
72685;BME280;61365;52.162;4.500;2022-11-24T03:16:33;100206.59;;;7.93;83.41
72685;BME280;61365;52.162;4.500;2022-11-24T03:19:01;100216.19;;;7.94;83.79
72685;BME280;61365;52.162;4.500;2022-11-24T03:21:28;100222.25;;;7.98;83.75
72685;BME280;61365;52.162;4.500;2022-11-24T03:23:54;100243.16;;;8.12;83.31
72685;BME280;61365;52.162;4.500;2022-11-24T03:26:22;100245.78;;;8.01;83.29
72685;BME280;61365;52.162;4.500;2022-11-24T03:28:54;100251.91;;;7.99;83.06
72685;BME280;61365;52.162;4.500;2022-11-24T03:31:22;100243.19;;;8.04;82.79
72685;BME280;61365;52.162;4.500;2022-11-24T03:33:49;100259.72;;;8.28;82.11
72685;BME280;61365;52.162;4.500;2022-11-24T03:36:16;100257.09;;;8.08;82.47
72685;BME280;61365;52.162;4.500;2022-11-24T03:38:43;100261.47;;;8.12;82.98
72685;BME280;61365;52.162;4.500;2022-11-24T03:41:10;100262.34;;;8.06;83.96
72685;BME280;61365;52.162;4.500;2022-11-24T03:43:36;100267.56;;;8.02;83.72
72685;BME280;61365;52.162;4.500;2022-11-24T03:46:03;100273.66;;;8.22;84.71
72685;BME280;61365;52.162;4.500;2022-11-24T03:48:29;100278.91;;;8.22;84.66
72685;BME280;61365;52.162;4.500;2022-11-24T03:50:58;100278.91;;;8.18;84.83
72685;BME280;61365;52.162;4.500;2022-11-24T03:53:28;100285.84;;;8.25;86.32
72685;BME280;61365;52.162;4.500;2022-11-24T03:55:57;100283.25;;;8.17;85.37
72685;BME280;61365;52.162;4.500;2022-11-24T03:58:23;100285.00;;;8.24;86.04
72685;BME280;61365;52.162;4.500;2022-11-24T04:00:51;100286.72;;;8.33;86.72
72685;BME280;61365;52.162;4.500;2022-11-24T04:03:19;100285.88;;;8.09;86.94
72685;BME280;61365;52.162;4.500;2022-11-24T04:05:46;100293.72;;;8.20;86.54
72685;BME280;61365;52.162;4.500;2022-11-24T04:08:13;100289.34;;;8.18;86.74
72685;BME280;61365;52.162;4.500;2022-11-24T04:10:40;100291.97;;;8.29;87.87
72685;BME280;61365;52.162;4.500;2022-11-24T04:13:13;100295.44;;;8.35;87.80
72685;BME280;61365;52.162;4.500;2022-11-24T04:15:41;100299.78;;;8.44;87.37
72685;BME280;61365;52.162;4.500;2022-11-24T04:18:09;100296.31;;;8.44;87.40
72685;BME280;61365;52.162;4.500;2022-11-24T04:20:37;100302.41;;;8.38;87.65
72685;BME280;61365;52.162;4.500;2022-11-24T04:23:04;100307.63;;;8.30;88.91
72685;BME280;61365;52.162;4.500;2022-11-24T04:25:30;100309.38;;;8.28;87.97
72685;BME280;61365;52.162;4.500;2022-11-24T04:27:57;100321.56;;;8.20;88.43
72685;BME280;61365;52.162;4.500;2022-11-24T04:30:27;100311.97;;;8.11;88.42
72685;BME280;61365;52.162;4.500;2022-11-24T04:32:54;100325.91;;;8.10;87.52
72685;BME280;61365;52.162;4.500;2022-11-24T04:35:21;100328.53;;;8.10;88.27
72685;BME280;61365;52.162;4.500;2022-11-24T04:37:48;100334.63;;;8.00;87.11
72685;BME280;61365;52.162;4.500;2022-11-24T04:40:15;100337.25;;;8.04;88.35
72685;BME280;61365;52.162;4.500;2022-11-24T04:42:41;100335.50;;;8.06;87.06
72685;BME280;61365;52.162;4.500;2022-11-24T04:45:09;100343.31;;;7.88;87.80
72685;BME280;61365;52.162;4.500;2022-11-24T04:47:37;100347.63;;;7.76;88.35
72685;BME280;61365;52.162;4.500;2022-11-24T04:50:04;100347.63;;;7.76;89.13
72685;BME280;61365;52.162;4.500;2022-11-24T04:52:32;100346.78;;;7.85;87.11
72685;BME280;61365;52.162;4.500;2022-11-24T04:54:59;100349.41;;;7.87;87.96
72685;BME280;61365;52.162;4.500;2022-11-24T04:57:25;100363.34;;;7.87;88.51
72685;BME280;61365;52.162;4.500;2022-11-24T04:59:53;100373.78;;;7.86;88.04
72685;BME280;61365;52.162;4.500;2022-11-24T05:02:20;100379.88;;;7.77;86.70
72685;BME280;61365;52.162;4.500;2022-11-24T05:04:47;100376.38;;;7.75;87.00
72685;BME280;61365;52.162;4.500;2022-11-24T05:07:15;100378.13;;;7.76;88.66
72685;BME280;61365;52.162;4.500;2022-11-24T05:09:42;100385.91;;;7.63;87.63
72685;BME280;61365;52.162;4.500;2022-11-24T05:12:27;100390.25;;;7.64;87.71
72685;BME280;61365;52.162;4.500;2022-11-24T05:14:57;100391.16;;;7.68;88.73
72685;BME280;61365;52.162;4.500;2022-11-24T05:17:33;100403.34;;;7.69;88.67
72685;BME280;61365;52.162;4.500;2022-11-24T05:20:02;100404.22;;;7.74;89.76
72685;BME280;61365;52.162;4.500;2022-11-24T05:22:30;100420.75;;;7.73;89.59
72685;BME280;61365;52.162;4.500;2022-11-24T05:24:57;100423.38;;;7.72;89.14
72685;BME280;61365;52.162;4.500;2022-11-24T05:27:23;100432.94;;;7.65;89.02
72685;BME280;61365;52.162;4.500;2022-11-24T05:29:50;100441.63;;;7.70;88.87
72685;BME280;61365;52.162;4.500;2022-11-24T05:32:16;100436.41;;;7.64;89.82
72685;BME280;61365;52.162;4.500;2022-11-24T05:34:43;100442.47;;;7.61;90.29
72685;BME280;61365;52.162;4.500;2022-11-24T05:37:09;100445.13;;;7.68;90.04
72685;BME280;61365;52.162;4.500;2022-11-24T05:39:36;100459.84;;;7.50;90.15
72685;BME280;61365;52.162;4.500;2022-11-24T05:42:04;100456.38;;;7.51;90.54
72685;BME280;61365;52.162;4.500;2022-11-24T05:44:52;100459.88;;;7.53;90.56
72685;BME280;61365;52.162;4.500;2022-11-24T05:47:19;100465.94;;;7.49;90.44
72685;BME280;61365;52.162;4.500;2022-11-24T05:49:45;100471.09;;;7.40;91.38
72685;BME280;61365;52.162;4.500;2022-11-24T05:52:12;100469.38;;;7.40;92.65
72685;BME280;61365;52.162;4.500;2022-11-24T05:54:39;100471.94;;;7.37;92.78
72685;BME280;61365;52.162;4.500;2022-11-24T05:57:05;100479.78;;;7.37;92.38
72685;BME280;61365;52.162;4.500;2022-11-24T05:59:31;100485.84;;;7.31;93.70
72685;BME280;61365;52.162;4.500;2022-11-24T06:01:58;100484.97;;;7.29;93.24
72685;BME280;61365;52.162;4.500;2022-11-24T06:04:24;100487.59;;;7.34;93.60
72685;BME280;61365;52.162;4.500;2022-11-24T06:06:51;100491.94;;;7.30;94.25
72685;BME280;61365;52.162;4.500;2022-11-24T06:09:17;100496.31;;;7.36;93.45
72685;BME280;61365;52.162;4.500;2022-11-24T06:11:46;100502.44;;;7.44;94.04
72685;BME280;61365;52.162;4.500;2022-11-24T06:14:13;100498.94;;;7.41;93.67
72685;BME280;61365;52.162;4.500;2022-11-24T06:16:39;100511.19;;;7.53;94.01
72685;BME280;61365;52.162;4.500;2022-11-24T06:19:05;100508.56;;;7.48;93.88
72685;BME280;61365;52.162;4.500;2022-11-24T06:21:32;100518.03;;;7.36;94.62
72685;BME280;61365;52.162;4.500;2022-11-24T06:23:58;100514.59;;;7.41;94.72
72685;BME280;61365;52.162;4.500;2022-11-24T06:26:24;100532.81;;;7.31;95.54
72685;BME280;61365;52.162;4.500;2022-11-24T06:28:51;100528.44;;;7.27;96.20
72685;BME280;61365;52.162;4.500;2022-11-24T06:31:17;100524.16;;;7.37;96.47
72685;BME280;61365;52.162;4.500;2022-11-24T06:33:44;100538.91;;;7.33;96.21
72685;BME280;61365;52.162;4.500;2022-11-24T06:36:12;100543.28;;;7.31;96.83
72685;BME280;61365;52.162;4.500;2022-11-24T06:38:39;100548.47;;;7.34;96.32
72685;BME280;61365;52.162;4.500;2022-11-24T06:41:10;100547.63;;;7.34;96.58
72685;BME280;61365;52.162;4.500;2022-11-24T06:43:38;100551.91;;;7.26;97.10
72685;BME280;61365;52.162;4.500;2022-11-24T06:46:05;100557.13;;;7.24;97.71
72685;BME280;61365;52.162;4.500;2022-11-24T06:48:32;100569.38;;;7.33;98.08
72685;BME280;61365;52.162;4.500;2022-11-24T06:51:00;100568.56;;;7.42;97.83
72685;BME280;61365;52.162;4.500;2022-11-24T06:53:35;100565.00;;;7.30;97.33
72685;BME280;61365;52.162;4.500;2022-11-24T06:56:08;100571.13;;;7.34;98.24
72685;BME280;61365;52.162;4.500;2022-11-24T06:58:41;100581.63;;;7.42;97.41
72685;BME280;61365;52.162;4.500;2022-11-24T07:01:13;100582.56;;;7.50;97.24
72685;BME280;61365;52.162;4.500;2022-11-24T07:03:48;100588.59;;;7.41;96.47
72685;BME280;61365;52.162;4.500;2022-11-24T07:06:16;100597.31;;;7.46;97.08
72685;BME280;61365;52.162;4.500;2022-11-24T07:08:43;100594.63;;;7.37;97.15
72685;BME280;61365;52.162;4.500;2022-11-24T07:11:15;100593.66;;;7.24;97.31
72685;BME280;61365;52.162;4.500;2022-11-24T07:13:44;100608.41;;;7.17;98.31
72685;BME280;61365;52.162;4.500;2022-11-24T07:16:22;100610.16;;;7.20;98.31
72685;BME280;61365;52.162;4.500;2022-11-24T07:18:51;100613.47;;;7.03;98.39
72685;BME280;61365;52.162;4.500;2022-11-24T07:21:19;100625.63;;;7.03;99.38
72685;BME280;61365;52.162;4.500;2022-11-24T07:23:56;100624.81;;;7.05;99.43
72685;BME280;61365;52.162;4.500;2022-11-24T07:26:23;100631.81;;;7.13;99.47
72685;BME280;61365;52.162;4.500;2022-11-24T07:28:51;100635.28;;;7.10;98.79
72685;BME280;61365;52.162;4.500;2022-11-24T07:31:19;100640.50;;;7.12;99.09
72685;BME280;61365;52.162;4.500;2022-11-24T07:33:53;100643.16;;;7.15;99.45
72685;BME280;61365;52.162;4.500;2022-11-24T07:36:21;100648.31;;;7.07;99.00
72685;BME280;61365;52.162;4.500;2022-11-24T07:38:48;100653.59;;;7.15;99.32
72685;BME280;61365;52.162;4.500;2022-11-24T07:41:16;100654.47;;;7.17;99.37
72685;BME280;61365;52.162;4.500;2022-11-24T07:43:45;100655.41;;;7.22;99.59
72685;BME280;61365;52.162;4.500;2022-11-24T07:46:14;100663.38;;;7.38;98.98
72685;BME280;61365;52.162;4.500;2022-11-24T07:48:42;100662.47;;;7.35;99.11
72685;BME280;61365;52.162;4.500;2022-11-24T07:51:09;100666.09;;;7.47;98.43
72685;BME280;61365;52.162;4.500;2022-11-24T07:53:36;100665.97;;;7.36;97.53
72685;BME280;61365;52.162;4.500;2022-11-24T07:56:04;100676.47;;;7.41;98.70
72685;BME280;61365;52.162;4.500;2022-11-24T07:58:33;100681.63;;;7.34;98.00
72685;BME280;61365;52.162;4.500;2022-11-24T08:01:15;100687.75;;;7.38;98.58
72685;BME280;61365;52.162;4.500;2022-11-24T08:03:43;100685.19;;;7.43;98.52
72685;BME280;61365;52.162;4.500;2022-11-24T08:06:11;100695.69;;;7.50;98.30
72685;BME280;61365;52.162;4.500;2022-11-24T08:08:38;100696.66;;;7.59;97.89
72685;BME280;61365;52.162;4.500;2022-11-24T08:11:10;100701.03;;;7.64;98.19
72685;BME280;61365;52.162;4.500;2022-11-24T08:13:39;100712.41;;;7.68;98.68
72685;BME280;61365;52.162;4.500;2022-11-24T08:16:08;100711.59;;;7.74;98.16
72685;BME280;61365;52.162;4.500;2022-11-24T08:18:36;100722.06;;;7.77;97.98
72685;BME280;61365;52.162;4.500;2022-11-24T08:21:04;100711.66;;;7.80;97.78
72685;BME280;61365;52.162;4.500;2022-11-24T08:23:31;100726.44;;;7.82;97.70
72685;BME280;61365;52.162;4.500;2022-11-24T08:26:03;100730.94;;;7.99;97.59
72685;BME280;61365;52.162;4.500;2022-11-24T08:28:35;100717.13;;;8.17;96.97
72685;BME280;61365;52.162;4.500;2022-11-24T08:31:04;100724.22;;;8.35;96.28
72685;BME280;61365;52.162;4.500;2022-11-24T08:33:32;100726.00;;;8.39;95.27
72685;BME280;61365;52.162;4.500;2022-11-24T08:36:07;100729.50;;;8.41;95.23
72685;BME280;61365;52.162;4.500;2022-11-24T08:38:35;100740.97;;;8.61;95.00
72685;BME280;61365;52.162;4.500;2022-11-24T08:41:07;100733.16;;;8.70;94.46
72685;BME280;61365;52.162;4.500;2022-11-24T08:43:36;100736.78;;;8.95;93.63
72685;BME280;61365;52.162;4.500;2022-11-24T08:46:06;100734.16;;;8.95;93.05
72685;BME280;61365;52.162;4.500;2022-11-24T08:48:35;100743.81;;;9.09;94.51
72685;BME280;61365;52.162;4.500;2022-11-24T08:51:07;100745.53;;;9.02;93.40
72685;BME280;61365;52.162;4.500;2022-11-24T08:53:37;100743.72;;;8.92;92.66
72685;BME280;61365;52.162;4.500;2022-11-24T08:56:04;100753.38;;;9.04;93.14
72685;BME280;61365;52.162;4.500;2022-11-24T08:58:31;100762.16;;;9.16;92.04
72685;BME280;61365;52.162;4.500;2022-11-24T09:01:08;100757.81;;;9.34;91.75
72685;BME280;61365;52.162;4.500;2022-11-24T09:03:38;100750.91;;;9.44;90.42
72685;BME280;61365;52.162;4.500;2022-11-24T09:06:05;100761.38;;;9.59;89.59
72685;BME280;61365;52.162;4.500;2022-11-24T09:08:34;100767.44;;;9.32;89.77
72685;BME280;61365;52.162;4.500;2022-11-24T09:11:07;100776.94;;;9.08;90.46
72685;BME280;61365;52.162;4.500;2022-11-24T09:13:35;100775.97;;;8.81;91.25
72685;BME280;61365;52.162;4.500;2022-11-24T09:16:23;100777.75;;;8.87;91.83
72685;BME280;61365;52.162;4.500;2022-11-24T09:19:09;100787.25;;;8.74;91.90
72685;BME280;61365;52.162;4.500;2022-11-24T09:21:35;100782.16;;;8.99;92.16
72685;BME280;61365;52.162;4.500;2022-11-24T09:24:05;100790.97;;;9.23;91.55
72685;BME280;61365;52.162;4.500;2022-11-24T09:26:36;100790.19;;;9.45;91.16
72685;BME280;61365;52.162;4.500;2022-11-24T09:29:05;100796.34;;;9.57;89.70
72685;BME280;61365;52.162;4.500;2022-11-24T09:31:35;100798.13;;;9.83;89.38
72685;BME280;61365;52.162;4.500;2022-11-24T09:34:04;100799.84;;;9.76;88.79
72685;BME280;61365;52.162;4.500;2022-11-24T09:36:37;100812.91;;;9.60;89.48
72685;BME280;61365;52.162;4.500;2022-11-24T09:39:04;100805.09;;;9.82;88.53
72685;BME280;61365;52.162;4.500;2022-11-24T09:50:23;100830.50;;;10.20;87.15
72685;BME280;61365;52.162;4.500;2022-11-24T09:59:04;100847.97;;;10.12;87.27
72685;BME280;61365;52.162;4.500;2022-11-24T10:01:41;100852.38;;;10.43;86.76
72685;BME280;61365;52.162;4.500;2022-11-24T10:04:17;100855.81;;;10.35;86.31
72685;BME280;61365;52.162;4.500;2022-11-24T10:06:48;100854.13;;;10.44;86.38
72685;BME280;61365;52.162;4.500;2022-11-24T10:12:29;100854.97;;;10.24;86.68
72685;BME280;61365;52.162;4.500;2022-11-24T10:18:26;100859.34;;;10.17;86.44
72685;BME280;61365;52.162;4.500;2022-11-24T10:27:06;100869.81;;;10.06;86.26
72685;BME280;61365;52.162;4.500;2022-11-24T10:29:41;100858.44;;;10.25;86.00
72685;BME280;61365;52.162;4.500;2022-11-24T10:32:23;100868.06;;;10.16;85.89
72685;BME280;61365;52.162;4.500;2022-11-24T10:35:19;100875.06;;;10.37;86.08
72685;BME280;61365;52.162;4.500;2022-11-24T10:38:05;100867.22;;;10.41;85.81
72685;BME280;61365;52.162;4.500;2022-11-24T10:40:47;100878.56;;;10.38;85.84
72685;BME280;61365;52.162;4.500;2022-11-24T10:43:19;100877.72;;;10.31;85.88
72685;BME280;61365;52.162;4.500;2022-11-24T10:45:45;100879.47;;;10.42;85.23
72685;BME280;61365;52.162;4.500;2022-11-24T10:48:20;100884.72;;;10.48;84.73
72685;BME280;61365;52.162;4.500;2022-11-24T10:50:52;100882.97;;;10.48;83.99
72685;BME280;61365;52.162;4.500;2022-11-24T10:53:30;100879.47;;;10.60;84.21
72685;BME280;61365;52.162;4.500;2022-11-24T10:56:03;100882.97;;;10.70;84.04
72685;BME280;61365;52.162;4.500;2022-11-24T10:58:35;100889.94;;;10.85;83.76
72685;BME280;61365;52.162;4.500;2022-11-24T11:06:24;100881.22;;;10.57;83.25
72685;BME280;61365;52.162;4.500;2022-11-24T11:11:31;100879.44;;;10.34;84.07
72685;BME280;61365;52.162;4.500;2022-11-24T11:14:06;100882.94;;;10.31;84.01
72685;BME280;61365;52.162;4.500;2022-11-24T11:16:44;100875.94;;;10.32;83.00
72685;BME280;61365;52.162;4.500;2022-11-24T11:19:37;100886.44;;;10.21;83.90
72685;BME280;61365;52.162;4.500;2022-11-24T11:22:26;100889.06;;;10.27;84.17
72685;BME280;61365;52.162;4.500;2022-11-24T11:25:15;100877.69;;;10.27;84.39
72685;BME280;61365;52.162;4.500;2022-11-24T11:28:18;100890.78;;;10.19;84.81
72685;BME280;61365;52.162;4.500;2022-11-24T11:30:59;100892.53;;;10.15;84.29
72685;BME280;61365;52.162;4.500;2022-11-24T11:33:29;100889.03;;;10.07;85.22
72685;BME280;61365;52.162;4.500;2022-11-24T11:35:59;100889.88;;;9.95;85.37
72685;BME280;61365;52.162;4.500;2022-11-24T11:38:36;100886.38;;;9.98;85.23
72685;BME280;61365;52.162;4.500;2022-11-24T11:41:05;100884.63;;;9.95;85.45
72685;BME280;61365;52.162;4.500;2022-11-24T11:43:42;100887.25;;;9.90;85.50
72685;BME280;61365;52.162;4.500;2022-11-24T11:46:12;100889.88;;;9.92;85.57
72685;BME280;61365;52.162;4.500;2022-11-24T11:48:43;100892.50;;;9.98;85.12
72685;BME280;61365;52.162;4.500;2022-11-24T11:51:29;100895.09;;;9.84;85.77
72685;BME280;61365;52.162;4.500;2022-11-24T11:54:29;100895.16;;;10.12;84.88
72685;BME280;61365;52.162;4.500;2022-11-24T11:57:46;100896.00;;;9.93;85.00
72685;BME280;61365;52.162;4.500;2022-11-24T12:00:35;100899.53;;;10.05;85.73
72685;BME280;61365;52.162;4.500;2022-11-24T12:03:44;100905.59;;;9.97;85.74
72685;BME280;61365;52.162;4.500;2022-11-24T12:12:26;100896.84;;;9.88;85.91
72685;BME280;61365;52.162;4.500;2022-11-24T12:21:46;100910.00;;;10.02;84.87
72685;BME280;61365;52.162;4.500;2022-11-24T12:24:29;100898.63;;;10.08;84.30
72685;BME280;61365;52.162;4.500;2022-11-24T12:27:13;100903.00;;;10.03;84.80
72685;BME280;61365;52.162;4.500;2022-11-24T12:30:23;100903.88;;;10.10;84.55
72685;BME280;61365;52.162;4.500;2022-11-24T12:39:03;100908.25;;;10.06;84.37
72685;BME280;61365;52.162;4.500;2022-11-24T12:41:57;100908.25;;;10.11;84.71
72685;BME280;61365;52.162;4.500;2022-11-24T12:50:51;100906.53;;;10.20;84.27
72685;BME280;61365;52.162;4.500;2022-11-24T12:53:26;100905.69;;;10.32;83.67
72685;BME280;61365;52.162;4.500;2022-11-24T12:56:03;100897.78;;;10.25;83.98
72685;BME280;61365;52.162;4.500;2022-11-24T12:58:41;100913.56;;;10.37;83.74
72685;BME280;61365;52.162;4.500;2022-11-24T13:04:45;100907.44;;;10.35;83.72
72685;BME280;61365;52.162;4.500;2022-11-24T13:07:44;100903.03;;;10.21;84.07
72685;BME280;61365;52.162;4.500;2022-11-24T13:15:26;100901.25;;;10.08;84.31
72685;BME280;61365;52.162;4.500;2022-11-24T13:17:54;100910.03;;;10.18;83.88
72685;BME280;61365;52.162;4.500;2022-11-24T13:20:33;100898.66;;;10.17;84.15
72685;BME280;61365;52.162;4.500;2022-11-24T13:23:05;100901.28;;;10.11;84.11
72685;BME280;61365;52.162;4.500;2022-11-24T13:29:31;100909.16;;;10.27;84.33
72685;BME280;61365;52.162;4.500;2022-11-24T13:39:52;100895.16;;;10.04;84.68
72685;BME280;61365;52.162;4.500;2022-11-24T13:42:21;100890.81;;;10.20;83.49
72685;BME280;61365;52.162;4.500;2022-11-24T13:44:51;100883.78;;;10.10;84.61
72685;BME280;61365;52.162;4.500;2022-11-24T13:49:59;100901.22;;;9.99;84.66
72685;BME280;61365;52.162;4.500;2022-11-24T13:57:39;100889.88;;;10.00;84.96
72685;BME280;61365;52.162;4.500;2022-11-24T14:03:37;100886.34;;;9.85;86.02
72685;BME280;61365;52.162;4.500;2022-11-24T14:06:33;100884.59;;;9.84;86.93
72685;BME280;61365;52.162;4.500;2022-11-24T14:12:18;100878.44;;;9.67;87.19
72685;BME280;61365;52.162;4.500;2022-11-24T14:14:50;100873.19;;;9.64;86.97
72685;BME280;61365;52.162;4.500;2022-11-24T14:17:27;100874.94;;;9.61;87.44
72685;BME280;61365;52.162;4.500;2022-11-24T14:19:55;100867.03;;;9.60;87.67
72685;BME280;61365;52.162;4.500;2022-11-24T14:22:39;100867.94;;;9.60;87.54
72685;BME280;61365;52.162;4.500;2022-11-24T14:25:20;100868.81;;;9.63;87.89
72685;BME280;61365;52.162;4.500;2022-11-24T14:27:53;100876.75;;;9.80;87.23
72685;BME280;61365;52.162;4.500;2022-11-24T14:30:21;100881.03;;;9.65;86.78
72685;BME280;61365;52.162;4.500;2022-11-24T14:33:17;100875.78;;;9.62;87.72
72685;BME280;61365;52.162;4.500;2022-11-24T14:35:47;100875.81;;;9.65;88.50
72685;BME280;61365;52.162;4.500;2022-11-24T14:38:15;100873.16;;;9.59;87.33
72685;BME280;61365;52.162;4.500;2022-11-24T14:40:46;100875.78;;;9.53;87.90
72685;BME280;61365;52.162;4.500;2022-11-24T14:45:49;100882.78;;;9.57;88.47
72685;BME280;61365;52.162;4.500;2022-11-24T14:48:23;100886.25;;;9.57;87.65
72685;BME280;61365;52.162;4.500;2022-11-24T14:51:05;100875.84;;;9.70;86.88
72685;BME280;61365;52.162;4.500;2022-11-24T14:53:41;100868.81;;;9.67;86.39
72685;BME280;61365;52.162;4.500;2022-11-24T14:56:33;100874.91;;;9.55;87.50
72685;BME280;61365;52.162;4.500;2022-11-24T14:59:01;100878.41;;;9.56;86.68
72685;BME280;61365;52.162;4.500;2022-11-24T15:01:32;100874.00;;;9.49;86.82
72685;BME280;61365;52.162;4.500;2022-11-24T15:04:21;100869.63;;;9.48;87.81